sensor_id;sensor_type;location;lat;lon;timestamp;P1;durP1;ratioP1;P2;durP2;ratioP2
36291;SDS011;22327;51.208;6.418;2023-04-06T00:00:43;11.85;;;7.53;;
36291;SDS011;22327;51.208;6.418;2023-04-06T00:03:08;11.63;;;7.45;;
36291;SDS011;22327;51.208;6.418;2023-04-06T00:05:34;15.70;;;9.05;;
36291;SDS011;22327;51.208;6.418;2023-04-06T00:08:00;12.60;;;8.60;;
36291;SDS011;22327;51.208;6.418;2023-04-06T00:10:25;13.80;;;8.57;;
36291;SDS011;22327;51.208;6.418;2023-04-06T00:12:51;11.90;;;8.10;;
36291;SDS011;22327;51.208;6.418;2023-04-06T00:15:17;13.20;;;8.35;;
36291;SDS011;22327;51.208;6.418;2023-04-06T00:17:43;12.98;;;8.80;;
36291;SDS011;22327;51.208;6.418;2023-04-06T00:20:08;13.40;;;8.35;;
36291;SDS011;22327;51.208;6.418;2023-04-06T00:22:35;14.07;;;8.30;;
36291;SDS011;22327;51.208;6.418;2023-04-06T00:25:00;11.88;;;8.25;;
36291;SDS011;22327;51.208;6.418;2023-04-06T00:27:26;12.88;;;8.02;;
36291;SDS011;22327;51.208;6.418;2023-04-06T00:29:52;14.43;;;8.85;;
36291;SDS011;22327;51.208;6.418;2023-04-06T00:32:17;15.48;;;8.35;;
36291;SDS011;22327;51.208;6.418;2023-04-06T00:34:43;12.85;;;8.65;;
36291;SDS011;22327;51.208;6.418;2023-04-06T00:37:08;11.95;;;8.25;;
36291;SDS011;22327;51.208;6.418;2023-04-06T00:39:35;13.70;;;9.02;;
36291;SDS011;22327;51.208;6.418;2023-04-06T00:42:01;14.50;;;8.48;;
36291;SDS011;22327;51.208;6.418;2023-04-06T00:44:35;14.07;;;9.07;;
36291;SDS011;22327;51.208;6.418;2023-04-06T00:47:00;13.73;;;8.38;;
36291;SDS011;22327;51.208;6.418;2023-04-06T00:49:26;14.10;;;8.57;;
36291;SDS011;22327;51.208;6.418;2023-04-06T00:51:52;12.82;;;8.45;;
36291;SDS011;22327;51.208;6.418;2023-04-06T00:54:18;13.98;;;8.90;;
36291;SDS011;22327;51.208;6.418;2023-04-06T00:56:43;17.90;;;8.70;;
36291;SDS011;22327;51.208;6.418;2023-04-06T00:59:10;13.18;;;8.75;;
36291;SDS011;22327;51.208;6.418;2023-04-06T01:01:36;14.13;;;8.23;;
36291;SDS011;22327;51.208;6.418;2023-04-06T01:04:02;13.45;;;8.40;;
36291;SDS011;22327;51.208;6.418;2023-04-06T01:06:28;10.93;;;7.20;;
36291;SDS011;22327;51.208;6.418;2023-04-06T01:08:53;13.60;;;7.82;;
36291;SDS011;22327;51.208;6.418;2023-04-06T01:11:19;10.50;;;7.57;;
36291;SDS011;22327;51.208;6.418;2023-04-06T01:13:45;12.27;;;8.07;;
36291;SDS011;22327;51.208;6.418;2023-04-06T01:16:11;11.18;;;7.97;;
36291;SDS011;22327;51.208;6.418;2023-04-06T01:18:37;12.73;;;8.63;;
36291;SDS011;22327;51.208;6.418;2023-04-06T01:21:03;13.13;;;8.50;;
36291;SDS011;22327;51.208;6.418;2023-04-06T01:23:29;12.57;;;8.00;;
36291;SDS011;22327;51.208;6.418;2023-04-06T01:25:55;13.32;;;8.65;;
36291;SDS011;22327;51.208;6.418;2023-04-06T01:28:20;11.70;;;7.95;;
36291;SDS011;22327;51.208;6.418;2023-04-06T01:30:46;14.68;;;8.32;;
36291;SDS011;22327;51.208;6.418;2023-04-06T01:33:11;11.52;;;7.63;;
36291;SDS011;22327;51.208;6.418;2023-04-06T01:35:37;13.25;;;8.90;;
36291;SDS011;22327;51.208;6.418;2023-04-06T01:38:03;12.20;;;8.57;;
36291;SDS011;22327;51.208;6.418;2023-04-06T01:40:28;16.08;;;9.02;;
36291;SDS011;22327;51.208;6.418;2023-04-06T01:42:54;13.95;;;7.50;;
36291;SDS011;22327;51.208;6.418;2023-04-06T01:45:20;12.73;;;8.05;;
36291;SDS011;22327;51.208;6.418;2023-04-06T01:47:46;13.13;;;8.40;;
36291;SDS011;22327;51.208;6.418;2023-04-06T01:50:11;16.85;;;9.48;;
36291;SDS011;22327;51.208;6.418;2023-04-06T01:52:37;13.10;;;8.10;;
36291;SDS011;22327;51.208;6.418;2023-04-06T01:55:03;13.73;;;8.75;;
36291;SDS011;22327;51.208;6.418;2023-04-06T01:57:29;15.38;;;8.13;;
36291;SDS011;22327;51.208;6.418;2023-04-06T01:59:54;15.95;;;8.10;;
36291;SDS011;22327;51.208;6.418;2023-04-06T02:02:20;14.00;;;8.73;;
36291;SDS011;22327;51.208;6.418;2023-04-06T02:04:45;13.18;;;8.73;;
36291;SDS011;22327;51.208;6.418;2023-04-06T02:07:11;14.90;;;8.70;;
36291;SDS011;22327;51.208;6.418;2023-04-06T02:09:36;16.55;;;8.15;;
36291;SDS011;22327;51.208;6.418;2023-04-06T02:12:02;13.52;;;8.50;;
36291;SDS011;22327;51.208;6.418;2023-04-06T02:14:28;14.88;;;8.18;;
36291;SDS011;22327;51.208;6.418;2023-04-06T02:16:53;19.45;;;8.20;;
36291;SDS011;22327;51.208;6.418;2023-04-06T02:19:19;12.93;;;7.97;;
36291;SDS011;22327;51.208;6.418;2023-04-06T02:21:44;16.10;;;8.70;;
36291;SDS011;22327;51.208;6.418;2023-04-06T02:24:10;15.52;;;7.93;;
36291;SDS011;22327;51.208;6.418;2023-04-06T02:26:35;15.07;;;8.70;;
36291;SDS011;22327;51.208;6.418;2023-04-06T02:29:01;16.77;;;8.30;;
36291;SDS011;22327;51.208;6.418;2023-04-06T02:31:27;13.35;;;8.00;;
36291;SDS011;22327;51.208;6.418;2023-04-06T02:33:53;17.48;;;9.20;;
36291;SDS011;22327;51.208;6.418;2023-04-06T02:36:18;17.58;;;9.68;;
36291;SDS011;22327;51.208;6.418;2023-04-06T02:38:44;16.45;;;9.00;;
36291;SDS011;22327;51.208;6.418;2023-04-06T02:41:10;14.07;;;8.27;;
36291;SDS011;22327;51.208;6.418;2023-04-06T02:43:35;12.60;;;9.20;;
36291;SDS011;22327;51.208;6.418;2023-04-06T02:46:01;20.20;;;9.75;;
36291;SDS011;22327;51.208;6.418;2023-04-06T02:48:26;17.58;;;9.80;;
36291;SDS011;22327;51.208;6.418;2023-04-06T02:50:52;15.30;;;8.57;;
36291;SDS011;22327;51.208;6.418;2023-04-06T02:53:17;17.50;;;9.40;;
36291;SDS011;22327;51.208;6.418;2023-04-06T02:55:43;18.98;;;9.48;;
36291;SDS011;22327;51.208;6.418;2023-04-06T02:58:08;19.27;;;9.98;;
36291;SDS011;22327;51.208;6.418;2023-04-06T03:00:34;17.83;;;9.82;;
36291;SDS011;22327;51.208;6.418;2023-04-06T03:03:01;15.18;;;8.93;;
36291;SDS011;22327;51.208;6.418;2023-04-06T03:05:26;15.88;;;9.52;;
36291;SDS011;22327;51.208;6.418;2023-04-06T03:07:52;16.52;;;9.73;;
36291;SDS011;22327;51.208;6.418;2023-04-06T03:10:17;17.17;;;9.88;;
36291;SDS011;22327;51.208;6.418;2023-04-06T03:12:43;18.00;;;9.73;;
36291;SDS011;22327;51.208;6.418;2023-04-06T03:15:09;21.10;;;10.00;;
36291;SDS011;22327;51.208;6.418;2023-04-06T03:17:35;19.33;;;11.23;;
36291;SDS011;22327;51.208;6.418;2023-04-06T03:20:00;20.80;;;11.23;;
36291;SDS011;22327;51.208;6.418;2023-04-06T03:22:26;21.30;;;10.45;;
36291;SDS011;22327;51.208;6.418;2023-04-06T03:24:52;16.23;;;10.05;;
36291;SDS011;22327;51.208;6.418;2023-04-06T03:27:17;18.00;;;9.13;;
36291;SDS011;22327;51.208;6.418;2023-04-06T03:29:43;16.88;;;9.75;;
36291;SDS011;22327;51.208;6.418;2023-04-06T03:32:08;17.73;;;10.00;;
36291;SDS011;22327;51.208;6.418;2023-04-06T03:34:35;18.48;;;9.40;;
36291;SDS011;22327;51.208;6.418;2023-04-06T03:37:00;21.77;;;11.48;;
36291;SDS011;22327;51.208;6.418;2023-04-06T03:39:26;19.33;;;9.95;;
36291;SDS011;22327;51.208;6.418;2023-04-06T03:41:51;21.10;;;10.20;;
36291;SDS011;22327;51.208;6.418;2023-04-06T03:44:17;17.90;;;10.90;;
36291;SDS011;22327;51.208;6.418;2023-04-06T03:46:43;21.30;;;11.35;;
36291;SDS011;22327;51.208;6.418;2023-04-06T03:49:08;18.00;;;10.88;;
36291;SDS011;22327;51.208;6.418;2023-04-06T03:51:34;26.00;;;11.70;;
36291;SDS011;22327;51.208;6.418;2023-04-06T03:54:00;32.55;;;11.93;;
36291;SDS011;22327;51.208;6.418;2023-04-06T03:56:25;25.65;;;11.52;;
36291;SDS011;22327;51.208;6.418;2023-04-06T03:58:51;18.88;;;10.52;;
36291;SDS011;22327;51.208;6.418;2023-04-06T04:01:17;18.83;;;11.40;;
36291;SDS011;22327;51.208;6.418;2023-04-06T04:03:43;22.02;;;11.23;;
36291;SDS011;22327;51.208;6.418;2023-04-06T04:06:09;27.15;;;11.93;;
36291;SDS011;22327;51.208;6.418;2023-04-06T04:08:34;20.30;;;10.85;;
36291;SDS011;22327;51.208;6.418;2023-04-06T04:11:00;23.35;;;11.05;;
36291;SDS011;22327;51.208;6.418;2023-04-06T04:13:26;25.90;;;11.05;;
36291;SDS011;22327;51.208;6.418;2023-04-06T04:15:51;20.85;;;10.55;;
36291;SDS011;22327;51.208;6.418;2023-04-06T04:18:17;18.25;;;9.35;;
36291;SDS011;22327;51.208;6.418;2023-04-06T04:20:43;18.10;;;9.32;;
36291;SDS011;22327;51.208;6.418;2023-04-06T04:23:09;18.08;;;9.10;;
36291;SDS011;22327;51.208;6.418;2023-04-06T04:25:34;15.85;;;9.00;;
36291;SDS011;22327;51.208;6.418;2023-04-06T04:28:00;21.88;;;9.75;;
36291;SDS011;22327;51.208;6.418;2023-04-06T04:30:26;16.20;;;9.00;;
36291;SDS011;22327;51.208;6.418;2023-04-06T04:32:51;20.45;;;10.15;;
36291;SDS011;22327;51.208;6.418;2023-04-06T04:35:17;21.83;;;11.05;;
36291;SDS011;22327;51.208;6.418;2023-04-06T04:37:42;21.60;;;9.85;;
36291;SDS011;22327;51.208;6.418;2023-04-06T04:40:08;17.95;;;9.82;;
36291;SDS011;22327;51.208;6.418;2023-04-06T04:42:34;19.15;;;10.60;;
36291;SDS011;22327;51.208;6.418;2023-04-06T04:45:00;18.52;;;9.90;;
36291;SDS011;22327;51.208;6.418;2023-04-06T04:47:26;18.05;;;10.15;;
36291;SDS011;22327;51.208;6.418;2023-04-06T04:49:51;17.10;;;9.25;;
36291;SDS011;22327;51.208;6.418;2023-04-06T04:52:17;20.05;;;10.35;;
36291;SDS011;22327;51.208;6.418;2023-04-06T04:54:42;19.85;;;11.77;;
36291;SDS011;22327;51.208;6.418;2023-04-06T04:57:08;18.77;;;10.98;;
36291;SDS011;22327;51.208;6.418;2023-04-06T04:59:34;21.08;;;10.75;;
36291;SDS011;22327;51.208;6.418;2023-04-06T05:02:00;20.35;;;11.45;;
36291;SDS011;22327;51.208;6.418;2023-04-06T05:04:26;21.55;;;10.57;;
36291;SDS011;22327;51.208;6.418;2023-04-06T05:07:01;19.02;;;10.70;;
36291;SDS011;22327;51.208;6.418;2023-04-06T05:09:31;22.63;;;11.13;;
36291;SDS011;22327;51.208;6.418;2023-04-06T05:11:57;17.77;;;10.15;;
36291;SDS011;22327;51.208;6.418;2023-04-06T05:14:24;18.55;;;10.27;;
36291;SDS011;22327;51.208;6.418;2023-04-06T05:16:50;18.08;;;10.50;;
36291;SDS011;22327;51.208;6.418;2023-04-06T05:19:15;18.23;;;10.18;;
36291;SDS011;22327;51.208;6.418;2023-04-06T05:21:41;19.70;;;11.07;;
36291;SDS011;22327;51.208;6.418;2023-04-06T05:24:06;16.60;;;9.60;;
36291;SDS011;22327;51.208;6.418;2023-04-06T05:26:32;18.13;;;10.00;;
36291;SDS011;22327;51.208;6.418;2023-04-06T05:28:58;14.38;;;9.85;;
36291;SDS011;22327;51.208;6.418;2023-04-06T05:31:23;15.68;;;8.88;;
36291;SDS011;22327;51.208;6.418;2023-04-06T05:33:49;13.65;;;8.80;;
36291;SDS011;22327;51.208;6.418;2023-04-06T05:36:15;14.88;;;8.52;;
36291;SDS011;22327;51.208;6.418;2023-04-06T05:38:40;11.88;;;8.43;;
36291;SDS011;22327;51.208;6.418;2023-04-06T05:41:06;13.35;;;8.07;;
36291;SDS011;22327;51.208;6.418;2023-04-06T05:43:31;11.95;;;8.30;;
36291;SDS011;22327;51.208;6.418;2023-04-06T05:45:57;14.52;;;8.82;;
36291;SDS011;22327;51.208;6.418;2023-04-06T05:48:22;14.18;;;8.63;;
36291;SDS011;22327;51.208;6.418;2023-04-06T05:50:48;15.38;;;8.13;;
36291;SDS011;22327;51.208;6.418;2023-04-06T05:53:18;14.23;;;8.93;;
36291;SDS011;22327;51.208;6.418;2023-04-06T05:55:43;15.05;;;9.15;;
36291;SDS011;22327;51.208;6.418;2023-04-06T05:58:09;18.08;;;8.38;;
36291;SDS011;22327;51.208;6.418;2023-04-06T06:00:34;12.57;;;8.25;;
36291;SDS011;22327;51.208;6.418;2023-04-06T06:03:00;14.38;;;8.63;;
36291;SDS011;22327;51.208;6.418;2023-04-06T06:05:29;16.23;;;8.25;;
36291;SDS011;22327;51.208;6.418;2023-04-06T06:07:55;11.90;;;7.90;;
36291;SDS011;22327;51.208;6.418;2023-04-06T06:10:20;13.05;;;7.95;;
36291;SDS011;22327;51.208;6.418;2023-04-06T06:12:46;13.18;;;7.93;;
36291;SDS011;22327;51.208;6.418;2023-04-06T06:15:11;14.77;;;7.82;;
36291;SDS011;22327;51.208;6.418;2023-04-06T06:17:37;14.68;;;7.97;;
36291;SDS011;22327;51.208;6.418;2023-04-06T06:20:04;13.90;;;7.68;;
36291;SDS011;22327;51.208;6.418;2023-04-06T06:22:31;10.93;;;7.53;;
36291;SDS011;22327;51.208;6.418;2023-04-06T06:24:56;14.60;;;8.98;;
36291;SDS011;22327;51.208;6.418;2023-04-06T06:27:22;13.98;;;8.68;;
36291;SDS011;22327;51.208;6.418;2023-04-06T06:29:48;11.95;;;7.97;;
36291;SDS011;22327;51.208;6.418;2023-04-06T06:32:13;10.82;;;7.70;;
36291;SDS011;22327;51.208;6.418;2023-04-06T06:34:39;17.27;;;8.65;;
36291;SDS011;22327;51.208;6.418;2023-04-06T06:37:05;11.23;;;7.80;;
36291;SDS011;22327;51.208;6.418;2023-04-06T06:39:31;13.68;;;7.88;;
36291;SDS011;22327;51.208;6.418;2023-04-06T06:41:56;12.05;;;8.50;;
36291;SDS011;22327;51.208;6.418;2023-04-06T06:44:25;11.65;;;7.97;;
36291;SDS011;22327;51.208;6.418;2023-04-06T06:46:51;14.52;;;7.70;;
36291;SDS011;22327;51.208;6.418;2023-04-06T06:49:17;13.30;;;8.65;;
36291;SDS011;22327;51.208;6.418;2023-04-06T06:51:43;16.00;;;7.97;;
36291;SDS011;22327;51.208;6.418;2023-04-06T06:54:09;14.18;;;8.20;;
36291;SDS011;22327;51.208;6.418;2023-04-06T06:56:34;16.40;;;9.07;;
36291;SDS011;22327;51.208;6.418;2023-04-06T06:59:02;12.73;;;8.38;;
36291;SDS011;22327;51.208;6.418;2023-04-06T07:01:28;14.20;;;9.07;;
36291;SDS011;22327;51.208;6.418;2023-04-06T07:03:54;14.20;;;8.40;;
36291;SDS011;22327;51.208;6.418;2023-04-06T07:06:19;13.32;;;8.20;;
36291;SDS011;22327;51.208;6.418;2023-04-06T07:08:46;14.57;;;9.00;;
36291;SDS011;22327;51.208;6.418;2023-04-06T07:11:11;12.50;;;7.97;;
36291;SDS011;22327;51.208;6.418;2023-04-06T07:13:37;13.07;;;8.43;;
36291;SDS011;22327;51.208;6.418;2023-04-06T07:16:02;11.55;;;7.78;;
36291;SDS011;22327;51.208;6.418;2023-04-06T07:18:28;15.57;;;8.68;;
36291;SDS011;22327;51.208;6.418;2023-04-06T07:20:53;17.08;;;9.20;;
36291;SDS011;22327;51.208;6.418;2023-04-06T07:23:19;15.10;;;8.07;;
36291;SDS011;22327;51.208;6.418;2023-04-06T07:25:45;13.27;;;8.27;;
36291;SDS011;22327;51.208;6.418;2023-04-06T07:28:11;10.60;;;7.82;;
36291;SDS011;22327;51.208;6.418;2023-04-06T07:30:37;12.50;;;8.18;;
36291;SDS011;22327;51.208;6.418;2023-04-06T07:33:03;13.98;;;7.88;;
36291;SDS011;22327;51.208;6.418;2023-04-06T07:35:29;12.23;;;8.38;;
36291;SDS011;22327;51.208;6.418;2023-04-06T07:37:55;14.05;;;8.35;;
36291;SDS011;22327;51.208;6.418;2023-04-06T07:40:20;13.15;;;8.55;;
36291;SDS011;22327;51.208;6.418;2023-04-06T07:42:46;13.25;;;8.15;;
36291;SDS011;22327;51.208;6.418;2023-04-06T07:45:12;12.10;;;8.65;;
36291;SDS011;22327;51.208;6.418;2023-04-06T07:47:38;14.18;;;8.30;;
36291;SDS011;22327;51.208;6.418;2023-04-06T07:50:03;10.68;;;7.70;;
36291;SDS011;22327;51.208;6.418;2023-04-06T07:52:30;12.27;;;8.25;;
36291;SDS011;22327;51.208;6.418;2023-04-06T07:54:57;11.77;;;8.60;;
36291;SDS011;22327;51.208;6.418;2023-04-06T07:57:23;13.18;;;9.05;;
36291;SDS011;22327;51.208;6.418;2023-04-06T07:59:48;13.10;;;8.95;;
36291;SDS011;22327;51.208;6.418;2023-04-06T08:02:14;12.68;;;8.38;;
36291;SDS011;22327;51.208;6.418;2023-04-06T08:04:40;14.90;;;7.97;;
36291;SDS011;22327;51.208;6.418;2023-04-06T08:07:05;14.63;;;9.63;;
36291;SDS011;22327;51.208;6.418;2023-04-06T08:09:31;12.95;;;8.30;;
36291;SDS011;22327;51.208;6.418;2023-04-06T08:11:57;16.55;;;8.85;;
36291;SDS011;22327;51.208;6.418;2023-04-06T08:14:23;13.48;;;8.27;;
36291;SDS011;22327;51.208;6.418;2023-04-06T08:16:49;13.35;;;8.45;;
36291;SDS011;22327;51.208;6.418;2023-04-06T08:19:14;13.90;;;9.25;;
36291;SDS011;22327;51.208;6.418;2023-04-06T08:21:42;13.68;;;8.30;;
36291;SDS011;22327;51.208;6.418;2023-04-06T08:24:08;13.60;;;8.82;;
36291;SDS011;22327;51.208;6.418;2023-04-06T08:26:33;16.17;;;8.63;;
36291;SDS011;22327;51.208;6.418;2023-04-06T08:28:59;12.13;;;8.15;;
36291;SDS011;22327;51.208;6.418;2023-04-06T08:31:25;13.73;;;7.70;;
36291;SDS011;22327;51.208;6.418;2023-04-06T08:33:51;14.05;;;8.90;;
36291;SDS011;22327;51.208;6.418;2023-04-06T08:36:17;11.85;;;8.45;;
36291;SDS011;22327;51.208;6.418;2023-04-06T08:38:47;13.80;;;9.13;;
36291;SDS011;22327;51.208;6.418;2023-04-06T08:41:14;12.65;;;8.20;;
36291;SDS011;22327;51.208;6.418;2023-04-06T08:46:11;14.93;;;9.00;;
36291;SDS011;22327;51.208;6.418;2023-04-06T08:48:41;15.25;;;8.93;;
36291;SDS011;22327;51.208;6.418;2023-04-06T08:51:10;12.93;;;8.70;;
36291;SDS011;22327;51.208;6.418;2023-04-06T08:53:37;13.98;;;8.95;;
36291;SDS011;22327;51.208;6.418;2023-04-06T08:56:03;11.60;;;8.30;;
36291;SDS011;22327;51.208;6.418;2023-04-06T08:58:32;13.52;;;8.95;;
36291;SDS011;22327;51.208;6.418;2023-04-06T09:01:00;13.93;;;8.23;;
36291;SDS011;22327;51.208;6.418;2023-04-06T09:03:30;14.65;;;8.57;;
36291;SDS011;22327;51.208;6.418;2023-04-06T09:05:58;12.15;;;7.88;;
36291;SDS011;22327;51.208;6.418;2023-04-06T09:08:23;13.75;;;8.60;;
36291;SDS011;22327;51.208;6.418;2023-04-06T09:10:49;11.35;;;7.95;;
36291;SDS011;22327;51.208;6.418;2023-04-06T09:13:16;11.25;;;8.50;;
36291;SDS011;22327;51.208;6.418;2023-04-06T09:15:42;11.45;;;8.15;;
36291;SDS011;22327;51.208;6.418;2023-04-06T09:18:08;14.80;;;7.57;;
36291;SDS011;22327;51.208;6.418;2023-04-06T09:20:33;11.50;;;8.00;;
36291;SDS011;22327;51.208;6.418;2023-04-06T09:22:59;17.13;;;8.70;;
36291;SDS011;22327;51.208;6.418;2023-04-06T09:25:25;13.10;;;7.88;;
36291;SDS011;22327;51.208;6.418;2023-04-06T09:28:25;15.38;;;7.88;;
36291;SDS011;22327;51.208;6.418;2023-04-06T09:30:49;11.93;;;8.30;;
36291;SDS011;22327;51.208;6.418;2023-04-06T09:33:21;14.63;;;7.72;;
36291;SDS011;22327;51.208;6.418;2023-04-06T09:35:51;14.70;;;8.35;;
36291;SDS011;22327;51.208;6.418;2023-04-06T09:38:17;11.94;;;7.74;;
36291;SDS011;22327;51.208;6.418;2023-04-06T09:40:51;12.20;;;7.80;;
36291;SDS011;22327;51.208;6.418;2023-04-06T09:43:27;14.90;;;8.15;;
36291;SDS011;22327;51.208;6.418;2023-04-06T09:45:52;10.43;;;7.95;;
36291;SDS011;22327;51.208;6.418;2023-04-06T09:48:19;13.85;;;8.05;;
36291;SDS011;22327;51.208;6.418;2023-04-06T09:50:47;13.90;;;8.10;;
36291;SDS011;22327;51.208;6.418;2023-04-06T09:53:15;12.32;;;7.78;;
36291;SDS011;22327;51.208;6.418;2023-04-06T09:55:45;10.63;;;7.70;;
36291;SDS011;22327;51.208;6.418;2023-04-06T09:58:16;10.90;;;7.18;;
36291;SDS011;22327;51.208;6.418;2023-04-06T10:00:52;12.52;;;7.93;;
36291;SDS011;22327;51.208;6.418;2023-04-06T10:03:45;14.02;;;7.43;;
36291;SDS011;22327;51.208;6.418;2023-04-06T10:06:16;10.65;;;7.18;;
36291;SDS011;22327;51.208;6.418;2023-04-06T10:08:45;12.90;;;6.70;;
36291;SDS011;22327;51.208;6.418;2023-04-06T10:11:12;13.40;;;7.43;;
36291;SDS011;22327;51.208;6.418;2023-04-06T10:13:38;12.90;;;7.68;;
36291;SDS011;22327;51.208;6.418;2023-04-06T10:16:04;11.55;;;7.90;;
36291;SDS011;22327;51.208;6.418;2023-04-06T10:18:31;11.10;;;7.18;;
36291;SDS011;22327;51.208;6.418;2023-04-06T10:21:09;12.07;;;7.30;;
36291;SDS011;22327;51.208;6.418;2023-04-06T10:23:47;12.68;;;7.75;;
36291;SDS011;22327;51.208;6.418;2023-04-06T10:26:16;14.93;;;7.60;;
36291;SDS011;22327;51.208;6.418;2023-04-06T10:28:45;14.07;;;8.15;;
36291;SDS011;22327;51.208;6.418;2023-04-06T10:31:12;13.57;;;8.13;;
36291;SDS011;22327;51.208;6.418;2023-04-06T10:33:38;13.68;;;7.80;;
36291;SDS011;22327;51.208;6.418;2023-04-06T10:38:39;12.38;;;8.88;;
36291;SDS011;22327;51.208;6.418;2023-04-06T10:41:09;10.10;;;7.63;;
36291;SDS011;22327;51.208;6.418;2023-04-06T10:43:37;13.20;;;8.13;;
36291;SDS011;22327;51.208;6.418;2023-04-06T10:46:04;12.77;;;8.00;;
36291;SDS011;22327;51.208;6.418;2023-04-06T10:48:40;13.45;;;8.63;;
36291;SDS011;22327;51.208;6.418;2023-04-06T10:51:08;11.80;;;7.68;;
36291;SDS011;22327;51.208;6.418;2023-04-06T10:53:35;15.10;;;7.85;;
36291;SDS011;22327;51.208;6.418;2023-04-06T10:56:01;11.77;;;8.25;;
36291;SDS011;22327;51.208;6.418;2023-04-06T10:58:28;11.43;;;8.30;;
36291;SDS011;22327;51.208;6.418;2023-04-06T11:00:55;10.90;;;7.47;;
36291;SDS011;22327;51.208;6.418;2023-04-06T11:03:21;12.57;;;7.93;;
36291;SDS011;22327;51.208;6.418;2023-04-06T11:05:47;16.20;;;7.95;;
36291;SDS011;22327;51.208;6.418;2023-04-06T11:11:06;15.35;;;8.23;;
36291;SDS011;22327;51.208;6.418;2023-04-06T11:13:42;11.38;;;7.60;;
36291;SDS011;22327;51.208;6.418;2023-04-06T11:16:17;11.02;;;6.75;;
36291;SDS011;22327;51.208;6.418;2023-04-06T11:18:54;9.55;;;5.85;;
36291;SDS011;22327;51.208;6.418;2023-04-06T11:21:31;8.98;;;5.80;;
36291;SDS011;22327;51.208;6.418;2023-04-06T11:24:08;9.02;;;5.03;;
36291;SDS011;22327;51.208;6.418;2023-04-06T11:26:39;8.70;;;5.38;;
36291;SDS011;22327;51.208;6.418;2023-04-06T11:29:09;8.07;;;5.65;;
36291;SDS011;22327;51.208;6.418;2023-04-06T11:31:42;9.80;;;5.85;;
36291;SDS011;22327;51.208;6.418;2023-04-06T11:34:11;10.50;;;5.78;;
36291;SDS011;22327;51.208;6.418;2023-04-06T11:36:58;10.65;;;5.78;;
36291;SDS011;22327;51.208;6.418;2023-04-06T11:39:26;11.40;;;5.85;;
36291;SDS011;22327;51.208;6.418;2023-04-06T11:41:54;10.02;;;5.90;;
36291;SDS011;22327;51.208;6.418;2023-04-06T11:44:38;7.30;;;5.28;;
36291;SDS011;22327;51.208;6.418;2023-04-06T11:47:08;8.95;;;5.82;;
36291;SDS011;22327;51.208;6.418;2023-04-06T11:49:38;8.77;;;5.55;;
36291;SDS011;22327;51.208;6.418;2023-04-06T11:52:24;12.35;;;5.07;;
36291;SDS011;22327;51.208;6.418;2023-04-06T11:54:52;7.90;;;5.47;;
36291;SDS011;22327;51.208;6.418;2023-04-06T11:57:21;7.05;;;4.75;;
36291;SDS011;22327;51.208;6.418;2023-04-06T11:59:50;5.93;;;4.13;;
36291;SDS011;22327;51.208;6.418;2023-04-06T12:02:16;7.03;;;4.60;;
36291;SDS011;22327;51.208;6.418;2023-04-06T12:04:42;7.55;;;4.95;;
36291;SDS011;22327;51.208;6.418;2023-04-06T12:07:08;9.50;;;5.20;;
36291;SDS011;22327;51.208;6.418;2023-04-06T12:09:34;7.28;;;4.93;;
36291;SDS011;22327;51.208;6.418;2023-04-06T12:12:00;7.65;;;5.60;;
36291;SDS011;22327;51.208;6.418;2023-04-06T12:14:26;7.30;;;4.65;;
36291;SDS011;22327;51.208;6.418;2023-04-06T12:16:52;9.15;;;5.00;;
36291;SDS011;22327;51.208;6.418;2023-04-06T12:19:18;6.90;;;4.28;;
36291;SDS011;22327;51.208;6.418;2023-04-06T12:21:43;5.68;;;3.88;;
36291;SDS011;22327;51.208;6.418;2023-04-06T12:24:09;6.80;;;4.57;;
36291;SDS011;22327;51.208;6.418;2023-04-06T12:26:35;5.63;;;3.58;;
36291;SDS011;22327;51.208;6.418;2023-04-06T12:29:02;7.07;;;3.70;;
36291;SDS011;22327;51.208;6.418;2023-04-06T12:31:37;4.75;;;3.45;;
36291;SDS011;22327;51.208;6.418;2023-04-06T12:34:09;7.43;;;3.33;;
36291;SDS011;22327;51.208;6.418;2023-04-06T12:36:36;4.28;;;3.13;;
36291;SDS011;22327;51.208;6.418;2023-04-06T12:39:02;5.05;;;3.50;;
36291;SDS011;22327;51.208;6.418;2023-04-06T12:41:28;4.63;;;3.33;;
36291;SDS011;22327;51.208;6.418;2023-04-06T12:43:54;5.30;;;3.60;;
36291;SDS011;22327;51.208;6.418;2023-04-06T12:46:20;5.78;;;4.18;;
36291;SDS011;22327;51.208;6.418;2023-04-06T12:48:46;4.88;;;4.13;;
36291;SDS011;22327;51.208;6.418;2023-04-06T12:51:12;6.45;;;4.43;;
36291;SDS011;22327;51.208;6.418;2023-04-06T12:53:38;6.32;;;4.60;;
36291;SDS011;22327;51.208;6.418;2023-04-06T12:56:10;6.43;;;4.50;;
36291;SDS011;22327;51.208;6.418;2023-04-06T12:58:40;6.20;;;4.50;;
36291;SDS011;22327;51.208;6.418;2023-04-06T13:01:06;7.63;;;5.07;;
36291;SDS011;22327;51.208;6.418;2023-04-06T13:03:33;7.18;;;4.97;;
36291;SDS011;22327;51.208;6.418;2023-04-06T13:05:59;7.30;;;4.88;;
36291;SDS011;22327;51.208;6.418;2023-04-06T13:08:25;12.38;;;5.88;;
36291;SDS011;22327;51.208;6.418;2023-04-06T13:10:51;6.85;;;5.50;;
36291;SDS011;22327;51.208;6.418;2023-04-06T13:13:18;7.82;;;5.57;;
36291;SDS011;22327;51.208;6.418;2023-04-06T13:15:53;7.25;;;5.20;;
36291;SDS011;22327;51.208;6.418;2023-04-06T13:18:20;7.70;;;5.32;;
36291;SDS011;22327;51.208;6.418;2023-04-06T13:20:47;7.45;;;5.30;;
36291;SDS011;22327;51.208;6.418;2023-04-06T13:23:13;7.93;;;5.45;;
36291;SDS011;22327;51.208;6.418;2023-04-06T13:25:39;7.57;;;5.30;;
36291;SDS011;22327;51.208;6.418;2023-04-06T13:28:04;7.68;;;5.72;;
36291;SDS011;22327;51.208;6.418;2023-04-06T13:30:30;8.20;;;5.22;;
36291;SDS011;22327;51.208;6.418;2023-04-06T13:32:55;6.50;;;5.63;;
36291;SDS011;22327;51.208;6.418;2023-04-06T13:35:21;7.35;;;5.13;;
36291;SDS011;22327;51.208;6.418;2023-04-06T13:37:47;7.30;;;5.18;;
36291;SDS011;22327;51.208;6.418;2023-04-06T13:40:13;7.75;;;4.70;;
36291;SDS011;22327;51.208;6.418;2023-04-06T13:42:39;7.22;;;5.20;;
36291;SDS011;22327;51.208;6.418;2023-04-06T13:45:06;8.25;;;5.72;;
36291;SDS011;22327;51.208;6.418;2023-04-06T13:47:32;7.93;;;5.40;;
36291;SDS011;22327;51.208;6.418;2023-04-06T13:49:57;8.65;;;5.32;;
36291;SDS011;22327;51.208;6.418;2023-04-06T13:52:23;7.63;;;5.28;;
36291;SDS011;22327;51.208;6.418;2023-04-06T13:54:49;6.32;;;4.93;;
36291;SDS011;22327;51.208;6.418;2023-04-06T13:57:15;9.35;;;5.53;;
36291;SDS011;22327;51.208;6.418;2023-04-06T13:59:41;8.07;;;5.55;;
36291;SDS011;22327;51.208;6.418;2023-04-06T14:02:07;6.97;;;4.80;;
36291;SDS011;22327;51.208;6.418;2023-04-06T14:04:34;6.88;;;5.13;;
36291;SDS011;22327;51.208;6.418;2023-04-06T14:07:00;6.93;;;5.10;;
36291;SDS011;22327;51.208;6.418;2023-04-06T14:09:29;8.25;;;5.57;;
36291;SDS011;22327;51.208;6.418;2023-04-06T14:11:55;8.88;;;5.75;;
36291;SDS011;22327;51.208;6.418;2023-04-06T14:14:21;7.35;;;5.32;;
36291;SDS011;22327;51.208;6.418;2023-04-06T14:16:48;6.80;;;5.47;;
36291;SDS011;22327;51.208;6.418;2023-04-06T14:19:14;9.18;;;6.07;;
36291;SDS011;22327;51.208;6.418;2023-04-06T14:21:42;8.63;;;6.45;;
36291;SDS011;22327;51.208;6.418;2023-04-06T14:24:08;8.23;;;5.68;;
36291;SDS011;22327;51.208;6.418;2023-04-06T14:26:37;7.88;;;6.43;;
36291;SDS011;22327;51.208;6.418;2023-04-06T14:29:04;8.43;;;6.05;;
36291;SDS011;22327;51.208;6.418;2023-04-06T14:31:30;9.93;;;6.70;;
36291;SDS011;22327;51.208;6.418;2023-04-06T14:33:56;7.78;;;6.18;;
36291;SDS011;22327;51.208;6.418;2023-04-06T14:36:22;9.95;;;6.38;;
36291;SDS011;22327;51.208;6.418;2023-04-06T14:38:48;9.15;;;6.53;;
36291;SDS011;22327;51.208;6.418;2023-04-06T14:41:23;9.18;;;6.55;;